Terminal Aerodrome Forecast
Issued by NWS Corpus Christi, TX

Home | Current Version | Previous Version | Text Only | Print | Product List | Glossary On
Versions: 1 2 3 4 5 6 7 8 9 10 11 12 13 14 15 16 17
000
FTUS44 KCRP 181900 AAA
TAFVCT
TAF AMD
KVCT 181939Z 1820/1918 15008KT P6SM VCTS SCT035CB BKN250
      TEMPO 1820/1821 VRB20G30KT 1SM TSRA
     FM190100 12005KT P6SM FEW015 SCT250
      TEMPO 1910/1914 5SM BR
     FM191500 10008KT P6SM VCTS SCT035CB BKN250=

USA.gov is the U.S. government's official web portal to all federal, state and local government web resources and services.